x

9444090 - Port Angeles, Wa (ptaw1) Weather Station

12:36 - Tue 5th May 2015 All times are PDT. -7 hours from GMT.

  • Wind
    2mph, 3mph gusts
  • Sea Temp 50°f
  • Ar Temp 49°f
  • Sea Pressure 1014.1mb
  • 9444090 - Port Angeles, Wa
  • 9444090 - Port Angeles, Wa

More Historic Weather Station data

Upgrade to MSW Pro to gain access to the past 30 days of data for over 8000 Wavebouys and Weather Stations around the globe.

Join Pro

Comparision Forecast

View Surf forecast
   
Ter 05/05 12:36 2 3 mph 1014.1mb 50f 49f
12:30 3 5 mph 1014.1mb 50f 49f
12:24 3 5 mph 1014.1mb 50f 49f
12:18 3 5 mph 1014.1mb 50f 49f
12:12 3 5 mph 1014mb 50f 49f
12:06 3 5 mph - - -
12:00 5 6 mph - - -
Seg 05/04 11:18  -  mph 1014mb 50f 48f
10:36 5 7 mph 1014mb 50f 47f
10:30 5 7 mph 1013.9mb 50f 47f
10:24 7 8 mph 1013.9mb 50f 47f
10:18 8 11 mph 1013.9mb 50f 47f
10:12 7 8 mph 1013.8mb 51f 47f
10:06 7 8 mph 1013.8mb 51f 47f
10:00 3 5 mph 1013.7mb 51f 47f
9:36 3 5 mph 1013.6mb 51f 48f
9:30 2 5 mph 1013.5mb 50f 49f
9:24 5 7 mph 1013.6mb 50f 49f
9:18 3 5 mph 1013.6mb 50f 49f
9:12 3
mph
1013.5mb 50f 50f
9:06 3 8 mph 1013.5mb 50f 50f
9:00 3 7 mph 1013.4mb 50f 51f
8:36 3 5 mph 1013.4mb 50f 51f
8:30 2 6 mph 1013.3mb 50f 51f
8:24 3 6 mph 1013.2mb 50f 51f
8:18 5
mph
1013.3mb 50f 52f
8:12 2 3 mph 1013.2mb 50f 52f
8:06 1 2 mph 1013.2mb 50f 52f
8:00 1 2 mph 1013.2mb 50f 52f
7:24  -  mph 1013.2mb 50f 54f
7:18  -  mph 1013.4mb 50f 54f
7:12  -  mph 1013.4mb 50f 55f
7:06  -  mph 1013.4mb 50f 56f
7:00  -  mph 1013.4mb 50f 55f
6:36 1 5 mph 1013.6mb 49f 54f
6:30 2 3 mph 1013.6mb 50f 53f
6:24 2
mph
1013.7mb 50f 53f
6:18  -  2 mph 1013.8mb 50f 54f
6:12 2 3 mph 1013.9mb 50f 53f
6:06  -  2 mph - - -
6:00 1 2 mph 1013.9mb 50f 53f
5:36 6 8 mph 1014.1mb 50f 52f
5:30 6 8 mph 1014.1mb 50f 52f
5:24 6 7 mph 1014.1mb 50f 52f
5:18 5 7 mph 1014.1mb 50f 53f
5:12 6
mph
1014mb 50f 53f
5:06 3 5 mph 1013.9mb 50f 53f
5:00 3 5 mph 1013.9mb 50f 53f
4:36 5
mph
1013.9mb 50f 54f
4:30 2 5 mph 1013.9mb 50f 53f
4:24 2 3 mph 1014mb 50f 53f
4:18 3 5 mph 1014mb 50f 53f
4:12 5 6 mph 1013.9mb 50f 54f
4:06 3 5 mph - - -
4:00 3 5 mph 1014mb 50f 56f
3:36 6 7 mph 1014mb 50f 54f
3:30 5 6 mph 1013.9mb 50f 54f
3:24 5 6 mph 1013.9mb 50f 55f
3:18 3 6 mph 1013.9mb 50f 55f
3:12 3 5 mph 1013.8mb 50f 56f
3:06 2 6 mph 1013.8mb 50f 55f
3:00 5 6 mph 1013.9mb 50f 55f
2:24  -  mph 1013.8mb 50f 54f
2:18  -  mph 1013.7mb 50f 54f
2:12  -  mph 1013.6mb 50f 54f
2:06  -  mph 1013.6mb 50f 54f
2:00  -  mph 1013.6mb 50f 54f
1:36 3 8 mph 1013.3mb 50f 55f
1:30 6 9 mph 1013.1mb 50f 58f
1:24 6 8 mph 1013.1mb 50f 59f
1:18 6 7 mph 1013.2mb 50f 59f
1:12 5 6 mph 1013.2mb 50f 56f
1:06 6 9 mph 1013.2mb 50f 56f
1:00 7 10 mph 1013.3mb 50f 58f
12:36 6 8 mph 1013.2mb 50f 57f
12:30 8 9 mph 1013.3mb 50f 56f
12:24 8 9 mph 1013.2mb 50f 56f
12:18 5 8 mph 1013.2mb 50f 59f
12:12 6 7 mph 1013.2mb 50f 57f
12:06 5 8 mph 1013.1mb 50f 58f
12:00 2 6 mph 1013.1mb 50f 57f
11:36 6 8 mph 1013mb 50f 55f
11:30 3 6 mph 1012.9mb 50f 52f
11:24 1 5 mph 1012.8mb 50f 52f
11:18 3 6 mph 1012.8mb 50f 52f
11:12 6 10 mph 1012.7mb 50f 51f
11:06 9 14 mph 1012.7mb 50f 51f
11:00 5 11 mph 1012.7mb 50f 51f
10:36 9 15 mph 1012.5mb 50f 52f
10:30 7 10 mph 1012.5mb 50f 51f
10:24 3 10 mph 1012.5mb 50f 52f
10:18 9 16 mph 1012.5mb 50f 51f
10:12 11 15 mph - - -
10:06 11 20 mph 1012.4mb 50f 51f
10:00 15 20 mph 1012.2mb 50f 51f
9:36 10 14 mph 1012.2mb 50f 50f
9:30 14 18 mph 1012.2mb 50f 50f
9:24 14 18 mph 1012.2mb 50f 51f
9:18 10 16 mph 1012.1mb 50f 50f
9:12 13 17 mph 1012.1mb 50f 51f
9:06 13 18 mph 1012.1mb 50f 51f
9:00 13 18 mph 1012.1mb 50f 51f
8:36 11 18 mph 1011.9mb 50f 50f
8:30 14 20 mph 1011.9mb 50f 50f
8:24 14 18 mph - - -
8:18 10 16 mph 1011.9mb 50f 50f
8:12 13 17 mph 1011.8mb 50f 50f
8:06 11 16 mph 1011.8mb 50f 50f
8:00 8 11 mph 1011.8mb 50f 50f
7:36 9 13 mph 1011.9mb 50f 50f
7:30 9 13 mph - - -
7:24 7 11 mph - - -
7:18 6 10 mph 1011.8mb 50f 49f
7:12 7 10 mph 1011.8mb 50f 49f
7:06 7 10 mph 1011.8mb 50f 49f
7:00 6 13 mph 1011.8mb 50f 49f
6:36 7 13 mph 1011.6mb 50f 47f
6:30 7 11 mph 1011.6mb 50f 47f
6:24 7 14 mph 1011.7mb 50f 47f
6:18 7 11 mph 1011.6mb 51f 47f
6:12 7 14 mph 1011.6mb 51f 47f
6:06 6 13 mph - - -
6:00 6 11 mph 1011.4mb 51f 47f
5:30  -  mph 1011.4mb 51f 48f
5:24  -  mph 1011.4mb 51f 48f
5:18  -  mph 1011.4mb 51f 48f
5:12  -  mph 1011.4mb 51f 48f
5:06  -  mph 1011.4mb 51f 47f
5:00  -  mph 1011.4mb 51f 48f
4:36 5 8 mph 1011.5mb 50f 47f
4:30 3 6 mph 1011.5mb 50f 47f
4:24 5 6 mph 1011.6mb 51f 48f
4:18 2 7 mph 1011.6mb 51f 48f
4:12 5 7 mph 1011.6mb 51f 48f
4:06 6 9 mph 1011.6mb 51f 48f
4:00 5 7 mph 1011.6mb 51f 49f
3:36 5 7 mph 1011.6mb 51f 48f
3:30 5 10 mph 1011.6mb 51f 49f
3:24 6 10 mph 1011.6mb 51f 49f
3:18 6 13 mph 1011.7mb 51f 49f
3:12 6 9 mph 1011.7mb 51f 49f
3:06 6 10 mph 1011.8mb 51f 49f
3:00 6 11 mph 1011.8mb 51f 49f
2:36 7 11 mph 1011.8mb 51f 50f
2:30 8 10 mph 1011.8mb 51f 49f
2:24 5 6 mph 1011.8mb 51f 46f
2:18 3 5 mph 1011.7mb 51f 46f
2:12 3 5 mph 1011.8mb 50f 47f
2:06 2 5 mph 1011.7mb 50f 47f
2:00 3 6 mph 1011.7mb 50f 47f
1:36 6 7 mph 1011.6mb 50f 47f
1:30 7 8 mph 1011.6mb 50f 47f
1:24 6 7 mph 1011.6mb 50f 47f
1:18 1 3 mph 1011.7mb 50f 47f
1:12 3 5 mph 1011.7mb 49f 48f
1:06 5 6 mph 1011.7mb 49f 48f
1:00 2 5 mph 1011.8mb 49f 49f
12:54 2 5 mph 1011.9mb 49f 49f
12:48 2 6 mph 1011.9mb 49f 49f
12:36 3 6 mph 1012mb 50f 48f
12:30 3 7 mph 1012mb 50f 48f
12:24 2 6 mph 1012mb 50f 49f
12:18  -  3 mph 1012mb 50f 48f
12:12 3 5 mph 1011.9mb 50f 48f
12:06 3 5 mph 1011.9mb 50f 48f
12:00 5
mph
1011.8mb 50f 48f
Dom 05/03 11:54 5
mph
- - -
11:48 3 5 mph 1011.9mb 50f 49f
11:18  -  mph 1012.1mb 51f 50f
10:54  -  mph 1012.2mb 50f 51f
10:48  -  mph 1012.3mb 50f 52f
10:30  -  mph 1012.5mb 50f 50f
10:24  -  mph 1012.5mb 50f 50f
10:18  -  mph 1012.5mb 50f 51f
10:12  -  mph 1012.4mb 50f 52f
9:54  -  mph 1012.5mb 51f 52f
9:48  -  mph 1012.6mb 51f 52f
9:36 5 7 mph 1012.7mb 51f 53f
9:30 2 7 mph 1012.8mb 51f 53f
9:24 6 8 mph 1012.8mb 51f 53f
9:18 7 9 mph 1012.9mb 51f 54f
9:12 7 10 mph 1012.9mb 51f 54f
9:06 8 10 mph - - -
9:00 8 13 mph - - -
8:54 10 14 mph 1012.8mb 51f 53f
8:48 8 11 mph 1012.8mb 51f 53f
8:36 7 8 mph 1012.8mb 51f 53f
8:30 6 7 mph 1012.7mb 51f 54f
8:24 6 8 mph 1012.7mb 52f 54f
8:18 6 8 mph - - -
8:12 8 9 mph - - -
8:06 9 11 mph 1012.8mb 51f 53f
8:00 9 11 mph 1012.8mb 51f 54f
7:54 7 9 mph 1012.8mb 51f 54f
7:48 8 9 mph 1012.8mb 51f 54f
7:36 9 13 mph 1012.8mb 51f 54f
7:30 11 13 mph 1012.8mb 51f 54f
7:24 11 14 mph - - -
7:18 10 14 mph 1012.9mb 51f 54f
7:12 13 14 mph 1012.9mb 51f 54f
7:06 11 13 mph 1012.9mb 51f 54f
7:00 11 15 mph 1012.9mb 51f 55f
6:54 11 14 mph - - -
6:36 13 15 mph 1013mb 51f 54f
6:30 13 14 mph 1013mb 51f 54f
6:24 13 16 mph 1013.1mb 51f 54f
6:18 14 17 mph 1013.2mb 51f 55f
6:12 15 18 mph - - -
6:06 14 15 mph 1013.3mb 51f 55f
6:00 13 15 mph 1013.3mb 51f 55f
5:54 13 15 mph 1013.3mb 51f 56f
5:48 13 15 mph 1013.4mb 51f 57f
5:36 2 3 mph 1013.3mb 51f 61f
5:30 2 3 mph 1013.4mb 51f 63f
5:24 1 2 mph 1013.4mb 51f 64f
5:18 2
mph
1013.5mb 51f 64f
5:12 2 3 mph 1013.5mb 51f 63f
5:06 2
mph
1013.5mb 51f 62f
5:00 2 3 mph 1013.6mb 50f 61f
4:54 3
mph
1013.7mb 50f 59f
4:48 3
mph
1013.7mb 50f 61f
4:36 3
mph
1013.8mb 51f 60f
4:30 3
mph
1013.9mb 51f 61f
4:24 3 5 mph 1014mb 51f 60f
4:18 3
mph
1014.1mb 51f 60f
4:12 3 5 mph 1014.2mb 51f 58f
4:06 3 6 mph 1014.3mb 51f 58f
4:00 5 6 mph 1014.4mb 51f 57f
3:54 5 6 mph 1014.5mb 51f 57f
3:48 5 6 mph - - -
3:36 6
mph
1014.7mb 51f 58f
3:30 6
mph
1014.8mb 51f 58f
3:24 6
mph
1014.8mb 51f 58f
3:18 5 6 mph 1014.9mb 51f 57f
3:12 5 6 mph 1015mb 51f 57f
3:06 5 6 mph 1015.1mb 51f 58f
3:00 6
mph
1015.2mb 51f 57f
2:54 6
mph
- - -
2:48 6
mph
1015.3mb 51f 57f
2:36 6 7 mph 1015.4mb 51f 57f
2:30 6
mph
1015.4mb 51f 58f
2:24 5 7 mph 1015.5mb 51f 57f
2:18 6
mph
1015.5mb 51f 59f
2:12 6 7 mph 1015.6mb 51f 58f
2:06 6 7 mph 1015.6mb 51f 57f
2:00 6
mph
1015.6mb 51f 57f
1:54 5 6 mph - - -
1:48 5 6 mph 1015.8mb 51f 58f
1:36 6
mph
1015.9mb 51f 57f
1:30 6
mph
1016mb 51f 57f
1:24 6 7 mph 1016mb 51f 57f
1:18 6 7 mph 1016.1mb 51f 57f
1:12 6 7 mph 1016.1mb 51f 56f
1:06 6
mph
1016.2mb 51f 57f
1:00 5 6 mph 1016.2mb 51f 57f
12:54 5 6 mph 1016.3mb 51f 56f
12:48 3 6 mph 1016.3mb 51f 57f
12:36 5 6 mph 1016.5mb 51f 57f
12:30 3 5 mph 1016.6mb 51f 58f
12:24 5
mph
1016.6mb 51f 58f
12:18 5
mph
1016.7mb 51f 57f
12:12 5
mph
1016.7mb 51f 57f
12:06 5 6 mph 1016.8mb 51f 57f
12:00 5 6 mph 1016.8mb 51f 58f
11:54 3 5 mph 1016.8mb 51f 57f
11:48 3 5 mph 1016.9mb 51f 58f
11:36 3 5 mph 1016.9mb 51f 58f
11:30 2 5 mph 1016.9mb 51f 58f
11:24 3 5 mph 1016.9mb 51f 59f
11:18 2 5 mph 1016.9mb 51f 59f
11:12 3 5 mph - - -
11:06 3 5 mph 1016.9mb 51f 58f
11:00 3 5 mph 1016.9mb 51f 58f
10:54 3 5 mph 1016.9mb 51f 57f
10:48 3 5 mph 1016.9mb 51f 57f
10:36 3
mph
1017mb 51f 56f
10:30 3 5 mph 1017.1mb 51f 57f
10:24 3 5 mph 1017.1mb 51f 57f
10:18 3 5 mph 1017mb 51f 57f
10:12 3 6 mph 1017mb 51f 58f
10:06 5 6 mph 1017mb 51f 56f
10:00 5
mph
1017mb 51f 55f
9:54 3 5 mph 1017.1mb 51f 54f
9:48 5 6 mph 1017mb 51f 55f
9:36 6 7 mph 1017.1mb 51f 55f
9:30 5 6 mph 1017.2mb 51f 56f
9:24 7 11 mph 1017.2mb 51f 54f
9:18 6 9 mph 1017.2mb 51f 55f
9:12 7 10 mph 1017.2mb 51f 55f
9:06 8 11 mph 1017.2mb 51f 54f
9:00 8 11 mph 1017.2mb 51f 54f
8:54 8 11 mph 1017.2mb 51f 54f
8:48 8 9 mph 1017.1mb 51f 54f
8:36 8 10 mph 1017.2mb 51f 54f
8:30 7 10 mph 1017.3mb 51f 54f
8:24 8 11 mph 1017.3mb 51f 54f
8:18 9 11 mph 1017.3mb 51f 53f
8:12 10 13 mph 1017.3mb 51f 54f
8:06 9 13 mph 1017.3mb 51f 53f
8:00 9 11 mph 1017.3mb 51f 53f
7:54 10 13 mph 1017.2mb 51f 53f
7:48 9 11 mph 1017.1mb 51f 53f
7:36 5 6 mph 1017.1mb 51f 51f
7:30 5 6 mph 1017mb 51f 50f
7:24 2 3 mph 1017mb 51f 49f
7:18 2
mph
1017mb 51f 49f
7:12 2
mph
1017mb 51f 48f
7:06 2 3 mph - - -
7:00 2
mph
- - -
6:54 3 7 mph 1016.7mb 51f 46f
6:48 6 8 mph 1016.6mb 51f 45f
6:30  -  mph 1016.6mb 51f 43f
6:24  -  mph 1016.5mb 51f 43f
6:18  -  mph 1016.4mb 51f 42f
6:12  -  mph 1016.4mb 51f 42f
6:06  -  mph 1016.3mb 51f 42f
6:00  -  mph 1016.3mb 51f 42f
5:54  -  mph 1016.3mb 51f 42f
5:48  -  mph 1016.4mb 51f 42f
5:36 3 5 mph 1016.5mb 51f 42f
5:30 2 3 mph 1016.5mb 51f 42f
5:24 3
mph
1016.5mb 51f 42f
5:18 3
mph
1016.4mb 51f 42f
5:12 3 5 mph 1016.4mb 51f 43f
5:06 2 6 mph - - -
5:00 5 6 mph - - -
4:54 3 6 mph 1016.4mb 51f 45f
4:48 3 6 mph 1016.4mb 51f 46f
4:36 6 10 mph 1016.4mb 51f 45f
4:30 8 10 mph 1016.4mb 51f 45f
4:24 5 7 mph 1016.4mb 51f 46f
4:18  -  7 mph 1016.5mb 51f 45f
4:12 6 9 mph - - -
4:06 7 9 mph 1016.5mb 51f 44f
4:00 7 8 mph 1016.5mb 51f 44f
3:54 2 6 mph 1016.6mb 51f 44f
3:48 6 7 mph 1016.6mb 51f 44f
3:36 3 6 mph 1016.5mb 51f 44f
3:30  -  2 mph 1016.5mb 51f 44f
3:24 2 3 mph 1016.6mb 51f 44f
3:18 2 5 mph 1016.6mb 51f 44f
3:12 3 5 mph 1016.6mb 51f 44f
3:06 2 3 mph 1016.7mb 51f 44f
3:00 2 5 mph 1016.6mb 51f 45f
2:54 5 8 mph 1016.6mb 51f 45f
2:48 7 10 mph 1016.6mb 51f 45f
2:36 10 15 mph 1016.6mb 51f 45f
2:30 11 15 mph 1016.7mb 51f 45f
2:24 9 13 mph 1016.8mb 51f 44f
2:18 3 6 mph 1016.8mb 51f 45f
2:12 6 10 mph 1016.9mb 51f 44f
2:06 9 10 mph 1016.9mb 51f 44f
2:00 9 10 mph 1017mb 51f 44f
1:54 8 9 mph 1017mb 51f 45f
1:48 5 7 mph 1017mb 51f 45f
1:36 6 7 mph 1017mb 51f 45f
1:30 3 6 mph 1017mb 51f 45f
1:24 3 6 mph 1017.1mb 51f 46f
1:18 3 5 mph 1017mb 51f 46f
1:12 5 6 mph 1017mb 51f 46f
1:06 3 5 mph 1016.9mb 51f 46f
1:00 3 5 mph 1016.9mb 51f 46f
12:54 3 5 mph 1016.9mb 51f 47f
12:48 1 5 mph 1016.8mb 51f 47f
12:36 3 5 mph 1016.7mb 51f 48f
12:30 3 6 mph 1016.7mb 51f 47f
12:24 5 8 mph 1016.7mb 51f 48f
12:18 3 5 mph 1016.7mb 51f 48f
12:12 3 7 mph 1016.6mb 51f 48f
12:06 3 6 mph 1016.6mb 51f 48f
12:00 5 6 mph 1016.6mb 51f 48f
Sáb 05/02 11:54 5 6 mph - - -
11:48 6 7 mph - - -
11:24  -  mph 1016.9mb 51f 48f
11:12  -  mph 1016.9mb 51f 48f
10:54  -  mph 1016.9mb 51f 48f
10:48  -  mph 1016.9mb 51f 48f
10:36 6 8 mph 1017mb 51f 48f
10:30 3 6 mph 1017mb 51f 48f
10:24 6
mph
1017mb 51f 48f
10:18 3 5 mph 1017.1mb 51f 48f
10:12 3 5 mph 1017.1mb 51f 48f
10:06 5 6 mph 1017.1mb 51f 49f
10:00 6 8 mph 1017.1mb 51f 48f
9:36 5 6 mph 1017.3mb 51f 49f
9:30 3
mph
1017.3mb 51f 50f
9:24 3
mph
1017.2mb 51f 50f
9:18 1 2 mph 1017.3mb 51f 50f
9:12 1 2 mph 1017.2mb 51f 51f
9:06 2 5 mph - - -
9:00 3 6 mph - - -
8:54 3 5 mph 1017.2mb 51f 51f
8:48 3 6 mph 1017.2mb 51f 51f
8:36 5 6 mph 1017.1mb 51f 52f
8:30 6 9 mph 1017.1mb 51f 52f
8:24 9 10 mph 1017.1mb 51f 52f
8:18 8 10 mph 1017.1mb 51f 52f
8:12 8 11 mph 1017.1mb 51f 52f
8:06 9 11 mph 1017mb 51f 52f
8:00 8 11 mph 1017mb 51f 52f
7:54 10 13 mph 1017mb 51f 52f
7:48 10 15 mph 1017mb 51f 52f
7:36 14 17 mph 1017mb 51f 52f
7:30 13 16 mph 1017mb 51f 53f
7:24 13 17 mph 1017mb 51f 53f
7:18 11 15 mph 1017mb 51f 53f
7:12 3 6 mph 1017mb 51f 55f
7:06 2
mph
1017mb 51f 56f
7:00 1 2 mph 1017mb 51f 55f
6:54 3 5 mph - - -
6:48 3
mph
- - -
6:36 2 3 mph 1017.2mb 51f 57f
6:30 2 3 mph 1017.2mb 51f 57f
6:24 2 3 mph 1017.2mb 51f 58f
6:18 2 3 mph 1017.2mb 50f 59f
6:12 2 3 mph 1017.2mb 50f 58f
6:06 1 2 mph 1017.2mb 50f 57f
6:00 2 3 mph 1017.2mb 50f 57f
5:54 2 3 mph 1017.2mb 50f 55f
5:48 2 3 mph 1017.3mb 50f 55f
5:36 3 5 mph 1017.3mb 50f 56f
5:30 3 5 mph 1017.4mb 50f 57f
5:24 3 5 mph 1017.4mb 50f 56f
5:18 3 5 mph 1017.4mb 50f 56f
5:12 3 5 mph 1017.5mb 51f 56f
5:06 3 5 mph 1017.6mb 51f 57f
5:00 5 6 mph 1017.6mb 51f 57f
4:54 5 6 mph 1017.6mb 51f 57f
4:48 5 6 mph 1017.6mb 51f 57f
4:36 3 5 mph 1017.8mb 51f 54f
4:30 3 5 mph 1017.9mb 51f 56f
4:24 3 5 mph 1017.9mb 51f 56f
4:18 5 6 mph 1018mb 51f 56f
4:12 3 5 mph 1018mb 51f 56f
4:06 3 5 mph 1018.1mb 51f 56f
4:00 5 6 mph 1018.1mb 51f 56f
3:54 5 6 mph 1018.2mb 51f 56f
3:48 5 6 mph 1018.2mb 51f 56f
3:36 5 6 mph 1018.3mb 51f 56f
3:30 6 7 mph 1018.4mb 51f 57f
3:24 6 7 mph 1018.4mb 51f 55f
3:18 6 8 mph 1018.5mb 51f 56f
3:12 7
mph
1018.6mb 51f 56f
3:06 7
mph
1018.6mb 51f 55f
3:00 7 8 mph 1018.7mb 51f 55f
2:54 7 8 mph 1018.8mb 51f 55f
2:48 6 8 mph 1018.8mb 51f 56f
2:36 6 7 mph 1019mb 51f 56f
2:30 7 8 mph 1019mb 51f 54f
2:24 7 9 mph 1019mb 51f 55f
2:18 7 9 mph 1019mb 51f 55f
2:12 8 9 mph 1019.1mb 51f 55f
2:06 8 9 mph 1019.1mb 51f 55f
2:00 8 9 mph 1019.1mb 51f 55f
1:54 9 10 mph 1019.2mb 51f 54f
1:48 8 10 mph 1019.2mb 51f 55f
1:36 9 10 mph 1019.4mb 51f 55f
1:30 10 11 mph 1019.4mb 51f 55f
1:24 9 11 mph 1019.4mb 51f 54f
1:18 9 11 mph 1019.5mb 51f 54f
1:12 9 11 mph 1019.5mb 51f 55f
1:06 9 10 mph 1019.5mb 51f 54f
1:00 8 10 mph 1019.5mb 51f 54f
12:54 8 11 mph 1019.5mb 51f 54f
12:48 8 11 mph 1019.6mb 51f 54f
12:36 7 10 mph 1019.7mb 51f 53f
12:30 8 10 mph 1019.7mb 51f 54f
12:24 6 9 mph 1019.7mb 51f 55f
12:18 6 9 mph 1019.7mb 51f 55f
12:12 7 10 mph 1019.7mb 51f 55f
12:06 6 9 mph 1019.7mb 51f 55f
12:00 7 11 mph 1019.7mb 51f 56f
11:54 7 11 mph 1019.7mb 51f 56f
11:48 7 10 mph 1019.7mb 51f 55f
11:36 7 9 mph 1019.7mb 51f 56f
11:30 7 9 mph 1019.8mb 51f 56f
11:24 7 9 mph 1019.7mb 51f 55f
11:18 7 10 mph 1019.7mb 51f 55f
11:12 7 11 mph 1019.8mb 51f 55f
11:06 9 11 mph 1019.8mb 51f 54f
11:00 7 11 mph 1019.8mb 50f 55f
10:54 8 11 mph 1019.8mb 50f 55f
10:48 8 11 mph 1019.8mb 50f 55f
10:36 9 11 mph 1019.7mb 50f 55f
10:30 8 11 mph 1019.7mb 50f 54f
10:24 9 11 mph 1019.6mb 50f 55f
10:18 9 11 mph 1019.6mb 50f 54f
10:12 8 10 mph 1019.6mb 50f 54f
10:06 7 9 mph 1019.6mb 50f 55f
10:00 6 7 mph 1019.6mb 50f 55f
9:54 6 7 mph - - -
9:48 6 7 mph 1019.5mb 50f 54f
9:36 5 6 mph 1019.5mb 50f 54f
9:30 5 6 mph 1019.5mb 50f 55f
9:24 5 6 mph 1019.5mb 50f 54f
9:18 5 6 mph 1019.5mb 50f 53f
9:12 5 6 mph 1019.5mb 50f 54f
9:06 3 6 mph 1019.5mb 50f 54f
9:00 5 6 mph 1019.5mb 50f 53f
8:54 5
mph
1019.5mb 50f 53f
8:48 2 3 mph 1019.5mb 50f 54f
8:36 3 5 mph 1019.5mb 50f 52f
8:30 3
mph
1019.5mb 50f 52f
8:24 2 3 mph 1019.4mb 50f 52f
8:18 3 5 mph 1019.4mb 50f 52f
8:12 3 5 mph 1019.4mb 50f 51f
8:06 3 5 mph - - -
8:00 2 3 mph - - -
7:54 2
mph
1019.3mb 50f 51f
7:48 1 2 mph 1019.3mb 50f 51f
7:36 2 3 mph 1019.2mb 50f 49f
7:30 2 3 mph - - -
7:24 2 3 mph - - -
7:18 3 6 mph 1019.2mb 50f 46f
7:12 3 5 mph 1019.2mb 50f 45f
7:06 3 5 mph 1019.1mb 50f 45f
7:00 3 6 mph 1019.1mb 50f 44f
6:54 6 8 mph 1019mb 50f 43f
6:48 7 8 mph 1019mb 50f 43f
6:36 6 7 mph 1018.9mb 50f 42f
6:30 7 8 mph 1018.9mb 50f 42f
6:24 7 8 mph 1018.8mb 50f 41f
6:18 7 9 mph 1018.8mb 50f 41f
6:12 6 7 mph 1018.8mb 50f 41f
6:06 5 7 mph 1018.8mb 50f 41f
6:00 6 8 mph 1018.7mb 50f 41f
5:54 6 7 mph 1018.6mb 50f 41f
5:48 7 8 mph 1018.6mb 50f 41f
5:36 5 6 mph 1018.5mb 50f 42f
5:30 6 7 mph 1018.5mb 50f 42f
5:24 5 6 mph 1018.5mb 50f 42f
5:18 5 6 mph 1018.4mb 50f 42f
5:12 5 6 mph 1018.4mb 50f 42f
5:06 5 6 mph 1018.3mb 50f 42f
5:00 6 8 mph 1018.3mb 50f 42f
4:54 6 7 mph 1018.3mb 50f 43f
4:48 6 7 mph 1018.3mb 50f 43f
4:36 7 8 mph 1018.2mb 50f 43f
4:30 7 8 mph - - -
4:24 8 9 mph - - -
4:18 7 9 mph - - -
4:12 8 9 mph - - -
4:06 8 9 mph 1018.2mb 50f 44f
4:00 6 7 mph 1018.2mb 50f 44f
3:54 7 9 mph 1018.2mb 50f 44f
3:48 7 8 mph 1018.2mb 50f 44f
3:36 6 7 mph 1018.2mb 50f 44f
3:30 6 8 mph 1018.2mb 50f 45f
3:24 6 8 mph 1018.2mb 50f 45f
3:18 7 8 mph 1018.2mb 50f 45f
3:12 7 8 mph 1018.2mb 50f 45f
3:06 8 9 mph 1018.3mb 50f 45f
3:00 6 7 mph 1018.3mb 50f 45f
2:54 7 8 mph 1018.3mb 50f 45f
2:48 3 6 mph 1018.3mb 50f 45f
2:36 3
mph
1018.4mb 50f 45f
2:30 2 3 mph 1018.5mb 50f 45f
2:24 3 7 mph 1018.4mb 50f 46f
2:18 6 8 mph 1018.4mb 50f 46f
2:12 6 8 mph 1018.4mb 50f 46f
2:06 5 7 mph 1018.4mb 50f 46f
2:00 6 7 mph 1018.4mb 50f 46f
1:54 3 6 mph 1018.4mb 50f 45f
1:48 2 5 mph 1018.4mb 50f 45f
1:36 3 6 mph 1018.3mb 50f 46f
1:30 5 6 mph 1018.3mb 50f 46f
1:24 5 7 mph 1018.2mb 50f 47f
1:18 3 6 mph 1018.2mb 50f 48f
1:12 5 6 mph 1018.2mb 50f 48f
1:06 5 8 mph 1018.2mb 50f 49f
1:00 5 6 mph 1018.2mb 50f 49f
12:54  -  2 mph 1018.3mb 50f 48f
12:48 3 9 mph 1018.3mb 50f 48f
12:30  -  mph 1018.3mb 50f 48f
12:24  -  mph 1018.4mb 50f 49f
12:18  -  mph 1018.5mb 50f 49f
12:12  -  mph 1018.6mb 50f 49f
12:06  -  mph 1018.6mb 50f 49f
12:00  -  mph 1018.6mb 50f 48f
Sex 05/01 11:54  -  mph 1018.7mb 50f 48f
11:48  -  mph 1018.6mb 50f 48f
11:36 3 6 mph 1018.7mb 50f 48f
11:30 3 7 mph - - -
11:24 5 9 mph 1018.7mb 50f 48f
11:18 6 9 mph 1018.7mb 50f 49f
11:12 6 9 mph - - -
11:06 6 9 mph - - -
11:00 6 9 mph - - -
10:54 5 9 mph 1018.7mb 50f 49f
10:48 5 11 mph 1018.6mb 50f 49f
10:36 9 14 mph 1018.6mb 50f 49f
10:30 5 9 mph 1018.6mb 50f 49f
10:24 6 14 mph 1018.6mb 50f 50f
10:18 8 15 mph 1018.5mb 50f 50f
10:12 10 18 mph - - -
10:06 13 16 mph 1018.4mb 50f 50f
10:00 8 16 mph 1018.4mb 50f 50f
9:54 11 18 mph 1018.4mb 50f 50f
9:48 10 16 mph 1018.3mb 50f 50f
9:30  -  mph 1018.2mb 50f 50f
9:24  -  mph 1018mb 50f 50f
9:18  -  mph 1017.9mb 50f 50f
9:12  -  mph 1017.8mb 50f 51f
9:06  -  mph 1017.8mb 50f 51f
9:00  -  mph 1017.7mb 50f 51f
8:54  -  mph 1017.6mb 51f 51f
8:48  -  mph 1017.6mb 51f 51f
8:36 18 29 mph 1017.6mb 51f 51f
8:30 21 30 mph 1017.5mb 51f 51f
8:24 21 28 mph 1017.4mb 51f 51f
8:18 18 28 mph 1017.3mb 51f 52f
8:12 21 26 mph 1017.3mb 51f 52f
8:06 16 22 mph 1017.2mb 51f 52f
8:00 16 22 mph 1017.2mb 51f 53f
7:54 15 21 mph 1017.2mb 51f 53f
7:48 13 20 mph 1017.3mb 51f 53f
7:36 16 22 mph 1017.2mb 51f 53f
7:30 16 25 mph 1017.1mb 51f 53f
7:24 17 26 mph 1017.1mb 51f 53f
7:18 17 31 mph 1017.1mb 51f 53f
7:12 17 25 mph 1017.2mb 51f 53f
7:06 21 31 mph 1017.3mb 51f 53f
7:00 22 29 mph 1017.4mb 51f 53f
6:54 20 25 mph 1017.3mb 51f 53f
6:48 20 32 mph 1017.4mb 51f 53f
6:36 21 29 mph 1017.5mb 51f 53f
6:30 23 31 mph 1017.5mb 51f 53f
6:24 23 32 mph 1017.6mb 51f 53f
6:18 25 31 mph 1017.6mb 51f 53f
6:12 21 28 mph 1017.6mb 51f 53f
6:06 22 28 mph 1017.7mb 51f 54f
6:00 21 26 mph 1017.6mb 51f 54f
5:54 23 28 mph 1017.6mb 51f 54f
5:48 18 24 mph 1017.7mb 51f 53f
5:36 23 28 mph 1017.7mb 51f 53f
5:30 18 26 mph 1017.7mb 51f 53f
5:24 21 28 mph 1017.8mb 51f 53f
5:18 23 28 mph 1017.8mb 51f 53f
5:12 21 29 mph 1017.8mb 51f 53f
5:06 23 29 mph 1017.9mb 51f 53f
5:00 20 28 mph 1017.8mb 51f 54f
4:54 22 29 mph - - -
4:48 21 26 mph - - -
4:36 16 22 mph 1017.8mb 51f 54f
4:30 17 22 mph 1017.9mb 51f 54f
4:24 16 22 mph 1017.9mb 50f 54f
4:18 15 20 mph 1017.9mb 50f 54f
4:12 17 22 mph 1018mb 50f 54f
4:06 16 23 mph 1018mb 50f 53f
4:00 18 24 mph 1018mb 50f 53f
3:54 20 25 mph - - -
3:48 20 25 mph 1018.1mb 50f 53f
3:36 17 22 mph 1018.1mb 51f 53f
3:30 16 23 mph 1018.1mb 51f 54f
3:24 20 29 mph 1018.2mb 51f 54f
3:18 21 29 mph 1018.2mb 51f 54f
3:12 20 25 mph 1018.1mb 51f 53f
3:06 18 23 mph - - -
3:00 21 25 mph - - -
2:54 21 26 mph 1018.3mb 51f 53f
2:48 18 25 mph 1018.3mb 51f 52f
2:36 17 23 mph 1018.3mb 51f 52f
2:30 17 24 mph 1018.3mb 51f 52f
2:24 20 24 mph 1018.3mb 51f 53f
2:18 20 26 mph 1018.3mb 51f 53f
2:12 21 28 mph 1018.3mb 51f 53f
2:06 20 25 mph 1018.3mb 51f 53f
2:00 20 28 mph 1018.3mb 51f 53f
1:54 23 29 mph 1018.3mb 51f 55f
1:48 20 28 mph 1018.4mb 51f 54f
1:36 21 25 mph 1018.5mb 51f 53f
1:30 20 25 mph 1018.5mb 51f 53f
1:24 17 22 mph 1018.5mb 51f 52f
1:18 17 22 mph 1018.5mb 51f 52f
1:12 17 24 mph 1018.5mb 51f 52f
1:06 18 24 mph 1018.5mb 51f 52f
1:00 22 26 mph 1018.5mb 51f 52f
12:54 21 26 mph 1018.6mb 51f 52f
12:48 21 25 mph 1018.6mb 51f 52f
12:36 21 24 mph 1018.5mb 51f 52f
12:30 18 24 mph 1018.5mb 51f 52f
12:24 18 23 mph 1018.5mb 51f 52f
12:18 16 23 mph 1018.5mb 51f 52f
12:12 16 21 mph 1018.5mb 51f 52f
12:06 16 23 mph 1018.5mb 50f 52f
12:00 17 22 mph 1018.6mb 50f 52f
11:54 20 25 mph 1018.6mb 50f 52f
11:48 16 24 mph 1018.6mb 50f 52f
11:36 20 25 mph 1018.6mb 51f 52f
11:30 16 21 mph 1018.6mb 51f 52f
11:24 16 21 mph 1018.6mb 51f 52f
11:18 14 18 mph 1018.6mb 51f 52f
11:12 14 17 mph 1018.7mb 51f 52f
11:06 14 20 mph 1018.7mb 51f 52f
11:00 15 18 mph 1018.7mb 51f 52f
10:54 14 18 mph 1018.6mb 51f 52f
10:48 14 21 mph 1018.6mb 51f 52f
10:36 16 23 mph 1018.6mb 50f 53f
10:30 14 20 mph 1018.6mb 50f 52f
10:24 15 21 mph 1018.7mb 50f 52f
10:18 15 21 mph 1018.7mb 50f 52f
10:12 15 23 mph 1018.7mb 50f 52f
10:06 15 21 mph 1018.8mb 50f 52f
10:00 14 18 mph 1018.8mb 50f 52f
9:54 13 16 mph 1018.8mb 50f 52f
9:48 11 16 mph 1018.9mb 50f 53f
9:36 11 16 mph 1018.9mb 50f 53f
9:30 11 16 mph 1018.9mb 50f 52f
9:24 13 15 mph 1018.9mb 50f 52f
9:18 13 14 mph 1018.9mb 50f 52f
9:12 10 13 mph 1018.9mb 50f 53f
9:06 7 10 mph 1018.9mb 50f 53f
9:00 5 8 mph 1018.8mb 50f 53f
8:54 6 10 mph 1018.8mb 50f 52f
8:48 6 10 mph 1018.8mb 50f 52f